Time;durP1;ratioP1;P1;durP2;ratioP2;P2;SDS_P1;SDS_P2;PMS_P1;PMS_P2;Temp;Humidity;BMP_temperature;BMP_pressure;BME280_temperature;BME280_humidity;BME280_pressure;Samples;Min_cycle;Max_cycle;Signal;HPM_P1;HPM_P2
2024/04/09 00:01:04;;;;;;;14.48;3.78;;;17.80;99.90;;;;;;13532523;26;20006;-36
2024/04/09 00:07:08;;;;;;;9.73;3.60;;;17.60;99.90;;;;;;13536800;26;20017;-36
2024/04/09 00:13:10;;;;;;;;;;;17.30;99.90;;;;;;13495745;26;20003;-36
2024/04/09 00:19:14;;;;;;;12.30;3.15;;;16.40;99.90;;;;;;13497552;26;19929;-36
2024/04/09 00:25:18;;;;;;;;;;;16.10;99.90;;;;;;13509395;26;19998;-36
2024/04/09 00:31:21;;;;;;;11.50;3.58;;;16.00;99.90;;;;;;13498002;26;20392;-36
2024/04/09 00:37:23;;;;;;;12.65;2.97;;;16.00;99.90;;;;;;13525815;26;20004;-36
2024/04/09 00:43:25;;;;;;;14.07;2.88;;;15.80;99.90;;;;;;13511954;26;19999;-37
2024/04/09 00:49:27;;;;;;;12.00;3.08;;;15.70;99.90;;;;;;13518096;26;20415;-36
2024/04/09 00:55:32;;;;;;;15.73;2.80;;;15.90;99.90;;;;;;13489734;26;20025;-36
2024/04/09 01:01:34;;;;;;;11.80;3.00;;;15.80;99.90;;;;;;13510578;26;20495;-36
2024/04/09 01:07:37;;;;;;;14.27;3.22;;;16.60;99.90;;;;;;13513503;26;19999;-36
2024/04/09 01:13:41;;;;;;;16.45;3.45;;;17.60;99.90;;;;;;13523924;26;20080;-36
2024/04/09 01:19:44;;;;;;;13.32;3.88;;;18.00;99.90;;;;;;13528264;26;20000;-36
2024/04/09 01:25:46;;;;;;;8.52;3.90;;;17.80;99.90;;;;;;13498216;26;20355;-36
2024/04/09 01:31:48;;;;;;;11.27;3.65;;;17.20;99.90;;;;;;13490825;26;20003;-36
2024/04/09 01:37:51;;;;;;;14.82;3.53;;;16.80;99.90;;;;;;13525277;26;20022;-36
2024/04/09 01:43:53;;;;;;;15.37;3.43;;;16.10;99.90;;;;;;13509320;26;20003;-36
2024/04/09 01:49:57;;;;;;;9.57;3.75;;;16.00;99.90;;;;;;13501505;26;20045;-35
2024/04/09 01:56:00;;;;;;;7.53;3.20;;;16.00;99.90;;;;;;13508313;26;20344;-36
2024/04/09 02:02:03;;;;;;;11.60;3.00;;;15.80;99.90;;;;;;13529659;26;20018;-36
2024/04/09 02:08:05;;;;;;;11.52;3.42;;;15.80;99.90;;;;;;13530032;26;20089;-36
2024/04/09 02:14:07;;;;;;;8.75;3.00;;;15.80;99.90;;;;;;13527449;26;20030;-36
2024/04/09 02:20:10;;;;;;;10.52;3.40;;;15.70;99.90;;;;;;13511112;26;20006;-36
2024/04/09 02:26:12;;;;;;;10.00;3.47;;;15.70;99.90;;;;;;13502128;26;20432;-36
2024/04/09 02:32:14;;;;;;;9.13;3.95;;;15.60;99.90;;;;;;13490368;26;20006;-36
2024/04/09 02:38:16;;;;;;;10.73;4.50;;;15.50;99.90;;;;;;13536653;26;20395;-35
2024/04/09 02:44:18;;;;;;;10.05;4.03;;;15.30;99.90;;;;;;13510063;26;20063;-36
2024/04/09 02:50:20;;;;;;;12.98;4.03;;;15.20;99.90;;;;;;13509450;26;20006;-36
2024/04/09 02:56:23;;;;;;;13.07;3.50;;;15.20;99.90;;;;;;13527293;26;20095;-36
2024/04/09 03:02:25;;;;;;;10.85;3.50;;;15.30;99.90;;;;;;13542181;26;20009;-36
2024/04/09 03:08:27;;;;;;;9.98;3.42;;;15.30;99.90;;;;;;13555657;26;20042;-36
2024/04/09 03:14:29;;;;;;;13.07;3.05;;;15.30;99.90;;;;;;13538804;26;20984;-36
2024/04/09 03:20:31;;;;;;;15.68;2.95;;;15.30;99.90;;;;;;13526124;26;20006;-36
2024/04/09 03:26:33;;;;;;;20.00;3.53;;;15.30;99.90;;;;;;13522906;26;20026;-36
2024/04/09 03:32:35;;;;;;;16.25;3.35;;;15.90;99.90;;;;;;13477963;26;20014;-35
2024/04/09 03:38:37;;;;;;;30.83;4.57;;;16.00;99.90;;;;;;13538682;26;20003;-36
2024/04/09 03:44:39;;;;;;;20.23;4.38;;;16.30;99.90;;;;;;13500774;26;19994;-36
2024/04/09 03:50:41;;;;;;;16.63;4.90;;;17.40;99.90;;;;;;13469083;26;20466;-35
2024/04/09 03:56:43;;;;;;;31.00;5.25;;;17.80;99.90;;;;;;13543203;26;20014;-36
2024/04/09 04:02:45;;;;;;;16.45;4.47;;;18.00;99.90;;;;;;13524230;26;20002;-36
2024/04/09 04:08:47;;;;;;;18.30;4.13;;;17.80;99.90;;;;;;13492581;26;20003;-36
2024/04/09 04:14:49;;;;;;;21.15;4.40;;;17.20;99.90;;;;;;13454039;26;20006;-36
2024/04/09 04:20:52;;;;;;;32.03;4.63;;;16.70;99.90;;;;;;13515042;26;20013;-36
2024/04/09 04:26:54;;;;;;;16.13;3.63;;;16.90;99.90;;;;;;13468024;26;20398;-36
2024/04/09 04:32:56;;;;;;;21.55;4.45;;;17.00;99.90;;;;;;13472708;26;20010;-36
2024/04/09 04:38:58;;;;;;;21.88;4.47;;;17.00;99.90;;;;;;13516526;26;20095;-36
2024/04/09 04:45:00;;;;;;;19.75;4.30;;;17.00;99.90;;;;;;13509881;26;20308;-36
2024/04/09 04:51:03;;;;;;;19.40;4.50;;;17.00;99.90;;;;;;13502495;26;20002;-36
2024/04/09 04:57:05;;;;;;;20.25;3.42;;;16.80;99.90;;;;;;13511919;26;20022;-36
2024/04/09 05:03:10;;;;;;;17.98;3.28;;;16.90;99.90;;;;;;13518258;26;20014;-36
2024/04/09 05:09:12;;;;;;;13.00;3.35;;;16.80;99.90;;;;;;13504561;26;21745;-36
2024/04/09 05:15:15;;;;;;;13.23;3.25;;;16.70;99.90;;;;;;13533541;26;20002;-36
2024/04/09 05:21:17;;;;;;;17.65;3.08;;;16.60;99.90;;;;;;13512111;26;20013;-36
2024/04/09 05:27:19;;;;;;;12.57;3.45;;;16.50;99.90;;;;;;13482680;26;20585;-35
2024/04/09 05:33:21;;;;;;;19.13;3.22;;;16.40;99.90;;;;;;13487614;26;20017;-36
2024/04/09 05:39:23;;;;;;;23.60;3.35;;;16.30;99.90;;;;;;13526465;26;20007;-36
2024/04/09 05:45:26;;;;;;;16.08;3.45;;;16.30;99.90;;;;;;13536802;26;20014;-36
2024/04/09 05:51:28;;;;;;;17.00;3.25;;;16.30;99.90;;;;;;13516470;26;19999;-36
2024/04/09 05:57:36;;;;;;;14.25;3.28;;;16.20;99.90;;;;;;13542880;26;20021;-35
2024/04/09 06:03:40;;;;;;;11.68;3.10;;;16.20;99.90;;;;;;13548246;26;20020;-36
2024/04/09 06:09:42;;;;;;;20.98;2.92;;;16.20;99.90;;;;;;13523137;26;20079;-36
2024/04/09 06:15:44;;;;;;;9.70;2.67;;;16.20;99.90;;;;;;13559956;26;20657;-36
2024/04/09 06:21:47;;;;;;;9.40;2.92;;;16.10;99.90;;;;;;13536775;26;20014;-36
2024/04/09 06:27:50;;;;;;;8.75;3.00;;;16.10;99.90;;;;;;13474536;26;20206;-36
2024/04/09 06:33:52;;;;;;;8.77;2.57;;;16.10;99.90;;;;;;13520619;26;20374;-36
2024/04/09 06:39:54;;;;;;;13.57;2.50;;;16.10;99.90;;;;;;13500040;26;20427;-36
2024/04/09 06:45:56;;;;;;;12.63;2.90;;;16.20;99.90;;;;;;13509908;26;20018;-35
2024/04/09 06:51:59;;;;;;;14.38;3.53;;;16.10;99.90;;;;;;13518069;26;20339;-36
2024/04/09 06:58:01;;;;;;;9.20;2.72;;;16.10;99.90;;;;;;13505577;26;20055;-36
2024/04/09 07:04:04;;;;;;;7.35;2.45;;;16.00;99.90;;;;;;13483469;26;20337;-36
2024/04/09 07:10:07;;;;;;;5.63;2.30;;;16.00;99.90;;;;;;13504349;26;20002;-35
2024/04/09 07:16:09;;;;;;;10.63;2.58;;;16.10;99.90;;;;;;13501372;26;20014;-36
2024/04/09 07:22:11;;;;;;;6.47;2.22;;;16.20;99.90;;;;;;13504033;26;20047;-36
2024/04/09 07:28:13;;;;;;;9.93;2.70;;;16.20;99.90;;;;;;13472241;26;20084;-35
2024/04/09 07:34:15;;;;;;;9.02;3.38;;;16.30;99.90;;;;;;13517775;26;20378;-36
2024/04/09 07:40:17;;;;;;;11.23;3.92;;;16.60;99.90;;;;;;13502608;26;20584;-36
2024/04/09 07:46:19;;;;;;;17.55;3.95;;;16.60;99.90;;;;;;13500500;26;20415;-36
2024/04/09 07:52:21;;;;;;;11.57;5.32;;;16.20;99.90;;;;;;13501286;26;20015;-36
2024/04/09 07:58:23;;;;;;;15.43;5.88;;;16.20;99.90;;;;;;13540842;26;20017;-36
2024/04/09 08:04:25;;;;;;;13.43;6.07;;;16.10;99.90;;;;;;13541009;26;20014;-36
2024/04/09 08:10:28;;;;;;;13.23;6.78;;;16.20;99.90;;;;;;13502684;26;19997;-36
2024/04/09 08:16:30;;;;;;;15.40;7.55;;;16.10;99.90;;;;;;13499191;26;20003;-36
2024/04/09 08:22:32;;;;;;;14.85;8.55;;;16.10;99.90;;;;;;13517239;26;20071;-36
2024/04/09 08:28:34;;;;;;;15.75;8.55;;;16.10;99.90;;;;;;13453350;26;20056;-36
2024/04/09 08:34:36;;;;;;;13.23;9.05;;;16.20;99.90;;;;;;13505563;26;20002;-35
2024/04/09 08:40:38;;;;;;;12.30;7.47;;;16.40;99.90;;;;;;13480719;26;20336;-35
2024/04/09 08:46:40;;;;;;;10.93;5.93;;;16.20;99.90;;;;;;13506253;26;19999;-36
2024/04/09 08:52:43;;;;;;;6.68;4.13;;;15.90;99.90;;;;;;13512063;26;20010;-36
2024/04/09 08:58:45;;;;;;;8.15;2.92;;;15.60;99.90;;;;;;13506831;26;20003;-36
2024/04/09 09:04:48;;;;;;;7.30;2.72;;;15.80;99.90;;;;;;13500753;26;19999;-36
2024/04/09 09:10:54;;;;;;;4.10;2.00;;;15.80;99.90;;;;;;13503237;26;20531;-36
2024/04/09 09:17:07;;;;;;;6.60;2.03;;;15.60;99.90;;;;;;13493217;26;20010;-36
2024/04/09 09:23:17;;;;;;;6.43;2.17;;;15.80;99.90;;;;;;13518207;26;19999;-36
2024/04/09 09:29:19;;;;;;;5.00;1.98;;;15.80;99.90;;;;;;13489102;26;20787;-36
2024/04/09 09:35:22;;;;;;;6.65;2.65;;;15.70;99.90;;;;;;13525080;26;20014;-36
2024/04/09 09:41:26;;;;;;;4.97;2.05;;;15.20;99.90;;;;;;13510820;26;20085;-36
2024/04/09 09:47:30;;;;;;;4.60;1.90;;;14.70;99.90;;;;;;13514618;26;20031;-36
2024/04/09 09:53:32;;;;;;;6.47;2.17;;;14.40;99.90;;;;;;13499330;26;19999;-35
2024/04/09 09:59:54;;;;;;;3.55;2.15;;;14.10;99.90;;;;;;13502701;26;20007;-36
2024/04/09 10:05:58;;;;;;;3.80;1.75;;;14.10;99.90;;;;;;13528494;26;20014;-36
2024/04/09 10:12:01;;;;;;;3.13;1.70;;;13.90;99.90;;;;;;13537342;26;20006;-36
2024/04/09 10:18:06;;;;;;;3.10;2.10;;;13.70;99.90;;;;;;13555298;26;20031;-35
2024/04/09 10:24:10;;;;;;;3.15;1.23;;;13.80;99.90;;;;;;13519888;26;20015;-37
2024/04/09 10:30:16;;;;;;;3.25;1.13;;;13.40;99.90;;;;;;13506332;26;20212;-36
2024/04/09 10:36:20;;;;;;;2.75;1.20;;;13.30;99.90;;;;;;13535663;26;20377;-36
2024/04/09 10:42:22;;;;;;;3.67;1.50;;;13.40;99.90;;;;;;13508989;26;20004;-36
2024/04/09 10:48:24;;;;;;;4.32;1.83;;;13.30;99.90;;;;;;13535597;26;20013;-35
2024/04/09 10:54:28;;;;;;;3.42;1.85;;;13.20;99.90;;;;;;13524696;26;19998;-36
2024/04/09 11:00:30;;;;;;;2.43;0.97;;;13.00;99.90;;;;;;13458022;26;20013;-35
2024/04/09 11:06:33;;;;;;;5.88;1.33;;;12.80;99.90;;;;;;13543978;26;20074;-36
2024/04/09 11:12:36;;;;;;;2.30;1.35;;;12.90;99.90;;;;;;13538941;26;20340;-36
2024/04/09 11:18:38;;;;;;;2.70;0.90;;;12.90;99.90;;;;;;13533562;26;20102;-35
2024/04/09 11:24:43;;;;;;;4.68;1.20;;;12.90;99.90;;;;;;13536516;26;20451;-36
2024/04/09 11:30:50;;;;;;;;;;;12.70;99.90;;;;;;13515690;26;19999;-36
2024/04/09 11:36:53;;;;;;;5.60;1.60;;;12.70;99.90;;;;;;13503824;26;20404;-35
2024/04/09 11:42:57;;;;;;;2.72;1.10;;;12.40;99.90;;;;;;13523903;26;20014;-36
2024/04/09 11:48:59;;;;;;;6.13;1.55;;;12.30;99.90;;;;;;13522705;26;20021;-36
2024/04/09 11:55:04;;;;;;;3.35;1.60;;;12.10;99.90;;;;;;13514188;26;20022;-36
2024/04/09 12:01:08;;;;;;;5.85;1.95;;;11.70;99.90;;;;;;13526378;26;19999;-35
2024/04/09 12:07:11;;;;;;;4.57;2.47;;;11.40;99.90;;;;;;13513327;26;20002;-36
2024/04/09 12:13:15;;;;;;;5.25;2.28;;;11.30;99.90;;;;;;13513747;26;20019;-36
2024/04/09 12:19:17;;;;;;;;;;;11.40;99.90;;;;;;13512625;26;20328;-36
2024/04/09 12:25:19;;;;;;;3.97;1.90;;;11.40;99.90;;;;;;13509342;26;20273;-36
2024/04/09 12:31:21;;;;;;;3.13;1.40;;;11.20;99.90;;;;;;13470385;26;20014;-35
2024/04/09 12:37:23;;;;;;;5.57;1.48;;;11.00;99.90;;;;;;13471402;26;20011;-35
2024/04/09 12:43:25;;;;;;;4.05;1.60;;;10.90;99.90;;;;;;13467593;26;20014;-36
2024/04/09 12:49:28;;;;;;;5.75;1.50;;;10.70;99.90;;;;;;13477528;26;20000;-36
2024/04/09 12:55:46;;;;;;;4.60;1.58;;;10.60;99.90;;;;;;13485341;26;20025;-36
2024/04/09 13:01:48;;;;;;;3.72;1.45;;;10.70;99.90;;;;;;13473590;26;20014;-35
2024/04/09 13:07:51;;;;;;;4.20;1.42;;;10.90;99.90;;;;;;13456763;26;20049;-36
2024/04/09 13:13:53;;;;;;;3.90;1.55;;;11.00;99.90;;;;;;13493550;26;20018;-36
2024/04/09 13:19:54;;;;;;;4.32;1.27;;;11.10;99.90;;;;;;13491588;26;20074;-37
2024/04/09 13:25:57;;;;;;;1.80;0.98;;;11.30;99.90;;;;;;13499943;26;20351;-40
2024/04/09 13:32:00;;;;;;;4.07;1.10;;;11.40;99.90;;;;;;13465664;26;20030;-36
2024/04/09 13:38:03;;;;;;;2.78;0.95;;;11.50;99.90;;;;;;13509317;26;19998;-36
2024/04/09 13:44:05;;;;;;;3.85;0.95;;;11.50;99.90;;;;;;13529892;26;20086;-36
2024/04/09 13:50:08;;;;;;;2.88;1.02;;;11.60;99.90;;;;;;13528588;26;20470;-36
2024/04/09 13:56:11;;;;;;;4.18;1.10;;;11.60;99.90;;;;;;13556064;26;20003;-36
2024/04/09 14:02:17;;;;;;;4.97;1.20;;;11.70;99.90;;;;;;13501639;26;20043;-36
2024/04/09 14:08:19;;;;;;;2.75;1.63;;;11.70;99.90;;;;;;13485560;26;20006;-36
2024/04/09 14:14:21;;;;;;;3.95;1.20;;;11.90;99.90;;;;;;13494658;26;20022;-35
2024/04/09 14:20:23;;;;;;;4.90;1.30;;;11.90;99.90;;;;;;13530192;26;20734;-36
2024/04/09 14:26:28;;;;;;;5.17;1.40;;;11.90;99.90;;;;;;13516812;26;20331;-35
2024/04/09 14:32:30;;;;;;;2.80;1.50;;;12.10;99.90;;;;;;13467796;26;20317;-36
2024/04/09 14:38:32;;;;;;;3.00;1.20;;;12.10;99.90;;;;;;13487910;26;21616;-35
2024/04/09 14:44:34;;;;;;;2.78;1.27;;;12.10;99.90;;;;;;13486489;26;20021;-36
2024/04/09 14:50:36;;;;;;;4.80;1.23;;;12.20;99.90;;;;;;13497813;26;20017;-35
2024/04/09 14:56:39;;;;;;;4.70;1.20;;;12.20;99.90;;;;;;13494267;26;20015;-36
2024/04/09 15:02:40;;;;;;;3.60;1.23;;;12.10;99.90;;;;;;13487351;26;20575;-36
2024/04/09 15:08:43;;;;;;;2.22;1.13;;;12.20;99.90;;;;;;13486759;26;20465;-36
2024/04/09 15:14:45;;;;;;;1.92;1.17;;;12.20;99.90;;;;;;13475472;26;20066;-36
2024/04/09 15:20:47;;;;;;;3.22;1.27;;;12.30;99.90;;;;;;13479685;26;20031;-35
2024/04/09 15:26:50;;;;;;;5.32;1.50;;;12.40;99.90;;;;;;13491288;26;20050;-36
2024/04/09 15:32:51;;;;;;;3.70;1.42;;;12.50;99.90;;;;;;13467796;26;20075;-36
2024/04/09 15:38:54;;;;;;;4.30;1.58;;;12.50;99.90;;;;;;13477153;26;20084;-36
2024/04/09 15:44:56;;;;;;;5.03;1.40;;;12.60;99.90;;;;;;13500841;26;20007;-36
2024/04/09 15:50:58;;;;;;;4.50;1.58;;;12.60;99.90;;;;;;13489700;26;19999;-36
2024/04/09 15:57:00;;;;;;;2.08;1.10;;;12.60;99.90;;;;;;13496275;26;20017;-36
2024/04/09 16:03:02;;;;;;;2.30;1.05;;;12.60;99.90;;;;;;13483244;26;19999;-36
2024/04/09 16:09:07;;;;;;;4.97;1.60;;;12.70;99.90;;;;;;13483333;26;20452;-36
2024/04/09 16:15:10;;;;;;;4.80;1.30;;;12.70;99.90;;;;;;13508719;26;20074;-36
2024/04/09 16:21:12;;;;;;;3.83;1.48;;;12.60;99.90;;;;;;13516962;26;20456;-36
2024/04/09 16:27:14;;;;;;;3.47;1.40;;;12.60;99.90;;;;;;13501223;26;20098;-36
2024/04/09 16:33:16;;;;;;;3.50;1.40;;;12.70;99.90;;;;;;13465478;26;20017;-35
2024/04/09 16:39:18;;;;;;;6.22;1.33;;;12.60;99.90;;;;;;13475433;26;20006;-35
2024/04/09 16:45:22;;;;;;;5.40;1.23;;;12.60;99.90;;;;;;13442509;26;20006;-35
2024/04/09 16:51:24;;;;;;;5.35;1.65;;;12.60;99.90;;;;;;13487855;26;20171;-36
2024/04/09 16:57:26;;;;;;;6.10;1.52;;;12.60;99.90;;;;;;13474862;26;20014;-36
2024/04/09 17:03:42;;;;;;;4.63;1.20;;;12.50;99.90;;;;;;13457247;26;20040;-36
2024/04/09 17:09:49;;;;;;;4.07;1.05;;;12.50;99.90;;;;;;13474549;26;20067;-36
2024/04/09 17:15:51;;;;;;;2.72;0.80;;;12.50;99.90;;;;;;13467250;26;20957;-36
2024/04/09 17:21:55;;;;;;;4.05;1.02;;;12.60;99.90;;;;;;13476671;26;20002;-35
2024/04/09 17:27:56;;;;;;;4.40;1.00;;;12.50;99.90;;;;;;13453482;26;21881;-35
2024/04/09 17:33:59;;;;;;;2.47;1.10;;;12.40;99.90;;;;;;13506370;26;20022;-36
2024/04/09 17:40:03;;;;;;;3.35;0.93;;;12.30;99.90;;;;;;13490956;26;20629;-36
2024/04/09 17:46:05;;;;;;;4.93;1.10;;;12.20;99.90;;;;;;13538526;26;19999;-36
2024/04/09 17:52:07;;;;;;;3.10;1.23;;;12.10;99.90;;;;;;13534017;26;20074;-36
2024/04/09 17:58:09;;;;;;;3.63;0.88;;;12.10;99.90;;;;;;13507803;26;20108;-35
2024/04/09 18:04:11;;;;;;;7.60;1.00;;;12.00;99.90;;;;;;13549803;26;20365;-36
2024/04/09 18:10:15;;;;;;;7.55;1.20;;;12.00;99.90;;;;;;13560476;26;20351;-36
2024/04/09 18:16:17;;;;;;;2.17;0.90;;;12.00;99.90;;;;;;13551247;26;20015;-36
2024/04/09 18:22:19;;;;;;;3.75;1.00;;;12.00;99.90;;;;;;13522217;26;20020;-36
2024/04/09 18:28:21;;;;;;;3.90;0.98;;;11.90;99.90;;;;;;13475321;26;20043;-36
2024/04/09 18:34:23;;;;;;;6.60;1.15;;;11.80;99.90;;;;;;13496332;26;20355;-36
2024/04/09 18:40:25;;;;;;;4.03;0.95;;;11.70;99.90;;;;;;13455554;26;20081;-35
2024/04/09 18:46:27;;;;;;;4.07;1.00;;;11.80;99.90;;;;;;13501552;26;19999;-35
2024/04/09 18:52:29;;;;;;;3.42;1.10;;;11.80;99.90;;;;;;13485566;26;20018;-36
2024/04/09 18:58:32;;;;;;;3.80;1.30;;;11.70;99.90;;;;;;13493986;26;19999;-36
2024/04/09 19:04:35;;;;;;;2.83;1.00;;;11.70;99.90;;;;;;13479116;26;19999;-36
2024/04/09 19:10:38;;;;;;;3.97;1.20;;;11.60;99.90;;;;;;13489737;26;20033;-35
2024/04/09 19:16:40;;;;;;;4.97;1.23;;;11.60;99.90;;;;;;13509208;26;20056;-35
2024/04/09 19:22:42;;;;;;;3.50;1.00;;;11.70;99.90;;;;;;13469929;26;20021;-36
2024/04/09 19:28:44;;;;;;;3.95;1.10;;;11.60;99.90;;;;;;13481260;26;20015;-36
2024/04/09 19:34:46;;;;;;;2.38;1.13;;;11.50;99.90;;;;;;13498921;26;20002;-36
2024/04/09 19:40:49;;;;;;;3.70;1.08;;;11.50;99.90;;;;;;13491641;26;20003;-36
2024/04/09 19:46:51;;;;;;;4.00;1.30;;;11.40;99.90;;;;;;13527815;26;20463;-35
2024/04/09 19:52:55;;;;;;;3.22;1.20;;;11.50;99.90;;;;;;13508248;26;20022;-35
2024/04/09 19:58:58;;;;;;;6.50;1.85;;;11.60;99.90;;;;;;13521955;26;20002;-35
2024/04/09 20:05:00;;;;;;;3.83;1.00;;;11.60;99.90;;;;;;13499741;26;20003;-35
2024/04/09 20:11:05;;;;;;;2.80;1.05;;;11.60;99.90;;;;;;13525664;26;20091;-36
2024/04/09 20:17:07;;;;;;;4.03;0.93;;;11.80;99.90;;;;;;13545471;26;20013;-35
2024/04/09 20:23:09;;;;;;;2.17;0.73;;;11.00;99.90;;;;;;13520864;26;20002;-35
2024/04/09 20:29:11;;;;;;;6.05;0.85;;;10.50;99.90;;;;;;13486601;26;20009;-35
2024/04/09 20:35:13;;;;;;;2.92;0.90;;;10.50;99.90;;;;;;13436776;26;20006;-35
2024/04/09 20:41:20;;;;;;;2.03;0.60;;;10.40;99.90;;;;;;13455488;26;20591;-35
2024/04/09 20:47:22;;;;;;;2.17;0.63;;;10.40;99.90;;;;;;13453607;26;20030;-35
2024/04/09 20:53:26;;;;;;;5.57;0.70;;;10.20;99.90;;;;;;13506496;26;20073;-35
2024/04/09 20:59:29;;;;;;;3.85;0.60;;;10.20;99.90;;;;;;13473481;26;20003;-35
2024/04/09 21:05:31;;;;;;;2.17;0.73;;;10.10;99.90;;;;;;13475201;26;19999;-36
2024/04/09 21:11:33;;;;;;;3.40;0.77;;;10.20;99.90;;;;;;13468932;26;20101;-35
2024/04/09 21:17:36;;;;;;;1.42;0.60;;;10.30;99.90;;;;;;13497246;26;20003;-35
2024/04/09 21:23:38;;;;;;;2.92;0.82;;;10.20;99.90;;;;;;13506547;26;20951;-36
2024/04/09 21:29:41;;;;;;;2.30;0.90;;;10.10;99.90;;;;;;13475478;26;20006;-35
2024/04/09 21:35:42;;;;;;;2.17;0.93;;;10.10;99.90;;;;;;13514991;26;20321;-36
2024/04/09 21:41:46;;;;;;;2.15;1.00;;;10.20;99.90;;;;;;13548436;26;20002;-35
2024/04/09 21:47:48;;;;;;;3.60;1.20;;;10.20;99.90;;;;;;13531854;26;20370;-35
2024/04/09 21:53:52;;;;;;;3.67;0.95;;;10.30;99.90;;;;;;13536046;26;20481;-36
2024/04/09 21:59:54;;;;;;;6.20;1.83;;;10.30;99.90;;;;;;13525869;26;20336;-35
2024/04/09 22:05:56;;;;;;;2.95;1.10;;;10.30;99.90;;;;;;13513689;26;20409;-35
2024/04/09 22:11:58;;;;;;;6.70;1.25;;;10.20;99.90;;;;;;13526503;26;20458;-35
2024/04/09 22:18:00;;;;;;;3.58;1.33;;;10.00;99.90;;;;;;13514945;26;20335;-35
2024/04/09 22:24:02;;;;;;;4.47;1.20;;;9.90;99.90;;;;;;13527692;26;20033;-36
2024/04/09 22:30:05;;;;;;;3.45;1.50;;;9.90;99.90;;;;;;13524635;26;20340;-35
2024/04/09 22:36:07;;;;;;;5.82;1.48;;;9.80;99.90;;;;;;13475761;26;20018;-35
2024/04/09 22:42:09;;;;;;;4.00;1.42;;;9.70;99.90;;;;;;13465109;26;19999;-36
2024/04/09 22:48:11;;;;;;;5.13;1.70;;;9.70;99.90;;;;;;13479280;26;20014;-35
2024/04/09 22:54:14;;;;;;;4.28;1.83;;;9.70;99.90;;;;;;13509424;26;20342;-36
2024/04/09 23:00:16;;;;;;;4.95;1.75;;;9.60;99.90;;;;;;13508235;26;22233;-35
2024/04/09 23:06:18;;;;;;;5.88;1.55;;;9.60;99.90;;;;;;13433086;26;20086;-35
2024/04/09 23:12:20;;;;;;;8.02;1.73;;;9.70;99.90;;;;;;13475708;26;20007;-35
2024/04/09 23:18:22;;;;;;;6.90;1.95;;;9.70;99.90;;;;;;13501255;26;20013;-35
2024/04/09 23:24:25;;;;;;;6.03;1.70;;;9.70;99.90;;;;;;13507747;26;20004;-35
2024/04/09 23:30:27;;;;;;;5.97;1.90;;;9.60;99.90;;;;;;13462520;26;20018;-35
2024/04/09 23:36:29;;;;;;;5.07;1.73;;;9.60;99.90;;;;;;13539239;26;19998;-35
2024/04/09 23:42:31;;;;;;;7.97;1.90;;;9.60;99.90;;;;;;13502483;26;20015;-35
2024/04/09 23:48:33;;;;;;;5.10;1.80;;;9.40;99.90;;;;;;13525344;26;20015;-36
2024/04/09 23:54:35;;;;;;;6.30;1.77;;;9.30;99.90;;;;;;13520037;26;20045;-36
